createdAt,value
2018-11-12T00:01:19.358Z,12.30
2018-11-12T00:06:03.221Z,10.57
2018-11-12T00:10:47.107Z,12.80
2018-11-12T00:15:30.866Z,20.63
2018-11-12T00:20:15.962Z,20.10
2018-11-12T00:24:59.789Z,20.50
2018-11-12T00:29:43.664Z,17.90
2018-11-12T00:34:27.419Z,18.87
2018-11-12T00:39:12.391Z,18.40
2018-11-12T00:43:56.217Z,17.83
2018-11-12T00:48:40.392Z,19.23
2018-11-12T00:53:24.226Z,22.53
2018-11-12T00:58:08.140Z,21.37
2018-11-12T01:02:52.135Z,22.67
2018-11-12T01:07:35.984Z,23.60
2018-11-12T01:12:19.824Z,22.13
2018-11-12T01:17:03.712Z,21.60
2018-11-12T01:21:47.554Z,21.90
2018-11-12T01:26:31.364Z,23.97
2018-11-12T01:31:15.193Z,21.53
2018-11-12T01:35:58.973Z,20.40
2018-11-12T01:40:42.782Z,15.07
2018-11-12T01:45:26.774Z,11.93
2018-11-12T01:50:11.689Z,9.13
2018-11-12T01:54:55.673Z,9.13
2018-11-12T01:59:39.572Z,8.07
2018-11-12T02:04:23.687Z,8.07
2018-11-12T02:09:09.732Z,8.33
2018-11-12T02:13:53.523Z,8.90
2018-11-12T02:18:37.368Z,8.03
2018-11-12T02:23:21.310Z,6.47
2018-11-12T02:28:05.221Z,6.80
2018-11-12T02:32:49.148Z,5.73
2018-11-12T02:37:32.978Z,5.37
2018-11-12T02:42:16.783Z,5.80
2018-11-12T02:47:00.553Z,5.30
2018-11-12T02:51:44.438Z,5.50
2018-11-12T02:56:28.129Z,5.03
2018-11-12T03:01:11.879Z,4.77
2018-11-12T03:05:55.638Z,4.60
2018-11-12T03:10:39.475Z,11.50
2018-11-12T03:15:23.278Z,18.60
2018-11-12T03:20:08.788Z,18.97
2018-11-12T03:24:53.667Z,18.80
2018-11-12T03:29:37.365Z,18.73
2018-11-12T03:34:21.193Z,21.57
2018-11-12T03:39:07.519Z,21.63
2018-11-12T03:43:51.359Z,24.00
2018-11-12T03:48:35.157Z,23.33
2018-11-12T03:53:18.895Z,25.30
2018-11-12T03:58:02.647Z,24.30
2018-11-12T04:02:46.480Z,25.00
2018-11-12T04:07:30.325Z,25.47
2018-11-12T04:12:14.109Z,23.47
2018-11-12T04:16:57.901Z,23.47
2018-11-12T04:21:41.737Z,25.00
2018-11-12T04:26:25.597Z,24.27
2018-11-12T04:31:09.385Z,22.23
2018-11-12T04:35:53.241Z,23.43
2018-11-12T04:40:37.054Z,20.63
2018-11-12T04:45:22.048Z,22.60
2018-11-12T04:50:08.105Z,23.20
2018-11-12T04:54:51.926Z,21.87
2018-11-12T04:59:35.787Z,20.80
2018-11-12T05:04:19.791Z,19.07
2018-11-12T05:09:03.797Z,22.47
2018-11-12T05:13:47.588Z,20.37
2018-11-12T05:18:31.393Z,21.90
2018-11-12T05:23:15.249Z,20.47
2018-11-12T05:27:58.995Z,19.93
2018-11-12T05:32:42.798Z,19.03
2018-11-12T05:37:26.554Z,19.70
2018-11-12T05:42:10.377Z,19.40
2018-11-12T05:46:54.582Z,19.37
2018-11-12T05:51:44.750Z,19.57
2018-11-12T05:56:28.726Z,17.53
2018-11-12T06:01:12.588Z,18.67
2018-11-12T06:05:56.287Z,19.70
2018-11-12T06:10:40.163Z,18.07
2018-11-12T06:15:23.960Z,17.53
2018-11-12T06:20:10.414Z,18.70
2018-11-12T06:24:54.324Z,17.07
2018-11-12T06:29:38.044Z,16.67
2018-11-12T06:34:21.762Z,17.37
2018-11-12T06:39:08.236Z,17.23
2018-11-12T06:43:52.246Z,17.70
2018-11-12T06:48:35.981Z,18.50
2018-11-12T06:53:19.889Z,18.00
2018-11-12T06:58:03.680Z,17.33
2018-11-12T07:02:47.587Z,17.27
2018-11-12T07:07:31.619Z,19.07
2018-11-12T07:12:15.330Z,17.90
2018-11-12T07:16:59.172Z,18.00
2018-11-12T07:21:43.076Z,17.80
2018-11-12T07:26:27.018Z,19.40
2018-11-12T07:31:12.542Z,19.20
2018-11-12T07:35:56.407Z,19.97
2018-11-12T07:40:40.434Z,24.77
2018-11-12T07:45:28.621Z,19.80
2018-11-12T07:50:15.125Z,18.33
2018-11-12T07:54:59.142Z,18.07
2018-11-12T07:59:46.190Z,16.33
2018-11-12T08:04:30.214Z,14.70
2018-11-12T08:09:14.314Z,14.73
2018-11-12T08:13:58.108Z,13.80
2018-11-12T08:18:42.201Z,15.10
2018-11-12T08:23:26.020Z,15.00
2018-11-12T08:28:11.929Z,15.57
2018-11-12T08:32:57.095Z,15.77
2018-11-12T08:37:41.035Z,14.73
2018-11-12T08:42:24.765Z,14.83
2018-11-12T08:47:08.701Z,16.40
2018-11-12T08:51:52.700Z,14.53
2018-11-12T08:56:36.695Z,11.90
2018-11-12T09:01:20.589Z,11.47
2018-11-12T09:06:04.517Z,10.67
2018-11-12T09:10:48.463Z,11.33
2018-11-12T09:15:32.261Z,11.07
2018-11-12T09:20:23.337Z,10.73
2018-11-12T09:25:09.550Z,10.77
2018-11-12T09:29:53.614Z,9.70
2018-11-12T09:34:37.554Z,9.80
2018-11-12T09:39:22.419Z,8.43
2018-11-12T09:44:06.281Z,8.40
2018-11-12T09:48:50.151Z,8.93
2018-11-12T09:53:34.042Z,8.73
2018-11-12T09:58:17.961Z,9.23
2018-11-12T10:03:02.485Z,9.53
2018-11-12T10:07:49.212Z,11.33
2018-11-12T10:12:33.705Z,10.13
2018-11-12T10:17:17.958Z,17.60
2018-11-12T10:21:58.870Z,15.17
2018-11-12T10:26:42.886Z,14.57
2018-11-12T10:31:26.853Z,55.63
2018-11-12T10:36:10.811Z,10.83
2018-11-12T10:40:55.601Z,9.60
2018-11-12T10:45:39.510Z,8.17
2018-11-12T10:50:23.978Z,9.90
2018-11-12T10:55:09.935Z,7.93
2018-11-12T10:59:53.665Z,9.43
2018-11-12T11:04:37.518Z,7.80
2018-11-12T11:09:21.313Z,7.33
2018-11-12T11:14:05.214Z,6.57
2018-11-12T11:18:49.412Z,5.77
2018-11-12T11:23:33.288Z,5.53
2018-11-12T11:28:17.805Z,5.10
2018-11-12T11:33:01.594Z,5.43
2018-11-12T11:37:46.159Z,5.43
2018-11-12T11:42:30.080Z,5.63
2018-11-12T11:47:13.829Z,5.20
2018-11-12T11:51:57.615Z,5.40
2018-11-12T11:56:41.510Z,12.00
2018-11-12T12:01:25.433Z,6.30
2018-11-12T12:06:09.172Z,6.03
2018-11-12T12:10:53.107Z,6.47
2018-11-12T12:15:36.904Z,6.80
2018-11-12T12:20:22.244Z,6.97
2018-11-12T12:25:07.625Z,7.00
2018-11-12T12:29:51.441Z,7.17
2018-11-12T12:34:35.247Z,11.13
2018-11-12T12:39:19.012Z,13.77
2018-11-12T12:44:02.821Z,11.20
2018-11-12T12:48:46.784Z,11.63
2018-11-12T12:53:30.653Z,11.73
2018-11-12T12:58:14.418Z,9.00
2018-11-12T13:02:58.220Z,9.60
2018-11-12T13:07:42.333Z,8.33
2018-11-12T13:12:26.335Z,8.50
2018-11-12T13:17:10.152Z,7.37
2018-11-12T13:21:53.915Z,8.03
2018-11-12T13:26:37.779Z,8.37
2018-11-12T13:31:21.885Z,7.97
2018-11-12T13:36:06.426Z,7.17
2018-11-12T13:40:50.256Z,7.60
2018-11-12T13:45:34.041Z,7.73
2018-11-12T13:50:19.366Z,11.43
2018-11-12T13:55:03.194Z,11.10
2018-11-12T13:59:47.049Z,8.53
2018-11-12T14:04:31.012Z,9.50
2018-11-12T14:09:15.146Z,7.37
2018-11-12T14:13:59.153Z,6.83
2018-11-12T14:18:42.930Z,6.77
2018-11-12T14:23:27.586Z,7.50
2018-11-12T14:28:12.009Z,8.17
2018-11-12T14:32:56.499Z,6.83
2018-11-12T14:37:40.909Z,6.83
2018-11-12T14:42:25.466Z,7.20
2018-11-12T14:47:09.227Z,7.17
2018-11-12T14:51:53.280Z,6.87
2018-11-12T14:56:36.948Z,7.50
2018-11-12T15:01:20.669Z,8.00
2018-11-12T15:06:04.539Z,7.83
2018-11-12T15:10:48.426Z,7.97
2018-11-12T15:15:32.296Z,8.43
2018-11-12T15:20:17.253Z,9.57
2018-11-12T15:25:01.131Z,8.43
2018-11-12T15:29:44.926Z,9.20
2018-11-12T15:34:28.696Z,9.87
2018-11-12T15:39:12.663Z,8.67
2018-11-12T15:43:56.620Z,12.23
2018-11-12T15:48:40.519Z,9.90
2018-11-12T15:53:24.343Z,10.10
2018-11-12T15:58:08.178Z,11.30
2018-11-12T16:02:52.059Z,11.10
2018-11-12T16:07:35.919Z,10.67
2018-11-12T16:12:19.725Z,11.60
2018-11-12T16:17:03.381Z,12.77
2018-11-12T16:21:47.254Z,13.47
2018-11-12T16:26:31.292Z,15.43
2018-11-12T16:31:15.430Z,13.80
2018-11-12T16:35:59.557Z,18.50
2018-11-12T16:40:43.796Z,16.43
2018-11-12T16:45:27.953Z,14.50
2018-11-12T16:50:13.005Z,14.70
2018-11-12T16:54:57.265Z,16.70
2018-11-12T16:59:41.366Z,16.63
2018-11-12T17:04:25.609Z,15.43
2018-11-12T17:09:12.419Z,18.62
2018-11-12T17:13:56.966Z,15.97
2018-11-12T17:18:41.540Z,14.40
2018-11-12T17:23:26.207Z,15.40
2018-11-12T17:28:10.534Z,18.60
2018-11-12T17:32:56.155Z,17.53
2018-11-12T17:37:40.815Z,17.43
2018-11-12T17:42:25.858Z,17.57
2018-11-12T17:47:10.122Z,24.25
2018-11-12T17:51:54.325Z,28.30
2018-11-12T17:56:38.885Z,26.43
2018-11-12T18:01:23.259Z,24.90
2018-11-12T18:06:08.158Z,33.85
2018-11-12T18:10:52.528Z,25.73
2018-11-12T18:15:37.488Z,24.67
2018-11-12T18:20:25.567Z,27.47
2018-11-12T18:25:10.186Z,21.02
2018-11-12T18:29:54.325Z,19.83
2018-11-12T18:34:38.337Z,20.63
2018-11-12T18:39:22.747Z,18.03
2018-11-12T18:44:07.182Z,19.70
2018-11-12T18:48:51.514Z,22.53
2018-11-12T18:53:35.761Z,22.50
2018-11-12T18:58:19.884Z,19.07
2018-11-12T19:03:04.385Z,19.37
2018-11-12T19:07:50.181Z,20.67
2018-11-12T19:12:34.618Z,19.60
2018-11-12T19:17:18.856Z,19.70
2018-11-12T19:22:02.706Z,18.53
2018-11-12T19:26:46.803Z,19.87
2018-11-12T19:31:30.753Z,18.30
2018-11-12T19:36:14.598Z,20.47
2018-11-12T19:40:58.752Z,18.87
2018-11-12T19:45:42.730Z,17.40
2018-11-12T19:50:28.134Z,17.90
2018-11-12T19:55:13.472Z,17.67
2018-11-12T19:59:57.678Z,17.33
2018-11-12T20:04:41.650Z,17.53
2018-11-12T20:09:26.021Z,16.13
2018-11-12T20:14:09.750Z,16.83
2018-11-12T20:18:53.609Z,17.57
2018-11-12T20:23:38.328Z,16.07
2018-11-12T20:28:22.356Z,16.87
2018-11-12T20:33:06.735Z,16.53
2018-11-12T20:37:51.274Z,15.40
2018-11-12T20:42:41.907Z,14.13
2018-11-12T20:47:26.137Z,14.23
2018-11-12T20:52:09.916Z,12.40
2018-11-12T20:56:53.657Z,14.20
2018-11-12T21:01:37.710Z,13.43
2018-11-12T21:06:21.710Z,12.47
2018-11-12T21:11:06.514Z,13.43
2018-11-12T21:15:50.355Z,11.97
2018-11-12T21:20:34.108Z,13.27
2018-11-12T21:25:19.344Z,13.63
2018-11-12T21:30:04.330Z,14.60
2018-11-12T21:34:48.329Z,13.33
2018-11-12T21:39:32.751Z,14.33
2018-11-12T21:44:17.295Z,13.40
2018-11-12T21:49:02.519Z,13.53
2018-11-12T21:53:46.320Z,13.93
2018-11-12T21:58:30.142Z,12.30
2018-11-12T22:03:13.872Z,12.37
2018-11-12T22:07:58.839Z,12.57
2018-11-12T22:12:44.213Z,11.43
2018-11-12T22:17:28.772Z,12.60
2018-11-12T22:22:12.610Z,11.13
2018-11-12T22:26:56.825Z,11.83
2018-11-12T22:31:40.547Z,12.30
2018-11-12T22:36:24.489Z,11.60
2018-11-12T22:41:08.341Z,11.13
2018-11-12T22:45:52.273Z,12.47
2018-11-12T22:50:35.997Z,12.83
2018-11-12T22:55:20.453Z,12.77
2018-11-12T23:00:04.928Z,12.77
2018-11-12T23:04:48.966Z,13.83
2018-11-12T23:09:33.345Z,13.50
2018-11-12T23:14:17.194Z,13.20
2018-11-12T23:19:00.953Z,14.43
2018-11-12T23:23:44.755Z,13.07
2018-11-12T23:28:28.643Z,13.50
2018-11-12T23:33:12.399Z,12.07
2018-11-12T23:37:56.261Z,12.50
2018-11-12T23:42:40.449Z,11.93
2018-11-12T23:47:24.203Z,10.83
2018-11-12T23:52:07.931Z,11.17
2018-11-12T23:56:51.835Z,9.97
